Delta Pioneer — SYIO — position and weather

sailwx.info

Track history (hours):
 
Tides and Currents Weather Stations Pressure Air Temp Water Temp Dewpoint Dewpoint Depression Visibility Wind Speed Wind Dir Waves Ship Positions

Delta Pioneer

Last reported at 2016-May-06 08:16 UTC. Time now 2016-May-06 09:20 UTC.
Position N 51°54' E 003°26'.

Length 249 m; draft 14 m.

Type: Ship (hazmat cat C). MMSI: 240244000.

Date/timePositionNaut miles runAvg speedWind from/ knotsBaromVisibWave heightAir tempDewpointWater temp
2016-May-06 08:16N 51°54' E 003°26'0 0.0
2016-May-06 07:31N 51°54' E 003°26'0 0.0
2016-May-06 06:28N 51°54' E 003°26'0 0.1
2016-May-06 03:19N 51°54' E 003°26'0 0.0
2016-May-06 00:04N 51°54' E 003°26'0 0.0
2016-May-05 17:22N 51°54' E 003°26'0 0.0
2016-May-05 07:31N 51°54' E 003°26'0 0.0
2016-May-05 06:31N 51°54' E 003°26'0 0.0
2016-May-05 05:31N 51°54' E 003°26'0 0.1
2016-May-05 04:25N 51°54' E 003°26'0 0.0
2016-May-04 21:28N 51°54' E 003°26'0 0.0
2016-May-04 07:28N 51°54' E 003°26'4 4.9
2016-May-04 06:33N 51°54' E 003°18'1010.4
2016-May-04 05:33N 51°54' E 003°01'30 9.1
2016-May-04 02:14N 52°22' E 002°47'2211.0
2016-May-04 00:14N 52°42' E 003°03'710.9
2016-May-03 23:33N 52°49' E 003°08'38211.2
2016-May-02 13:32N 57°51' E 009°59'1212.1
2016-May-02 12:33N 57°51' E 010°21'1111.5
2016-May-02 11:33N 57°50' E 010°42'1211.9
2016-May-02 10:33N 57°42' E 010°59'1212.5
2016-May-02 09:34N 57°33' E 011°16'1211.9
2016-May-02 08:34N 57°23' E 011°29'1313.2
2016-May-02 07:33N 57°11' E 011°37'1312.8
2016-May-02 06:33N 56°59' E 011°45'1212.2
2016-May-02 05:33N 56°47' E 011°53'1111.1
2016-May-02 04:33N 56°37' E 011°45'1211.6
2016-May-02 03:33N 56°27' E 011°34'1211.6
2016-May-02 02:33N 56°23' E 011°15'8 7.7
2016-May-02 01:33N 56°17' E 011°06'1312.5
2016-May-02 00:33N 56°04' E 011°06'1211.9
2016-May-01 23:33N 55°54' E 010°54'1211.6
2016-May-01 22:32N 55°43' E 010°48'2412.0
2016-May-01 20:33N 55°21' E 011°02'10 9.8
2016-May-01 19:33N 55°11' E 011°04'1111.4
2016-May-01 18:33N 54°60' E 010°59'1212.0
2016-May-01 17:33N 54°49' E 010°50'1010.4
2016-May-01 16:33N 54°39' E 010°52'1212.0
2016-May-01 15:33N 54°36' E 011°12'1312.7
2016-May-01 14:33N 54°30' E 011°32'1212.4
2016-May-01 13:33N 54°27' E 011°52'1111.5
2016-May-01 12:34N 54°28' E 012°12'1212.0
2016-May-01 11:33N 54°38' E 012°21'11 9.2
2016-May-01 10:19N 54°44' E 012°38'2810.1
2016-May-01 07:33N 54°56' E 013°23'1212.2
2016-May-01 06:33N 54°60' E 013°43'1312.7
2016-May-01 05:33N 55°04' E 014°03'1212.0
2016-May-01 04:33N 55°13' E 014°17'1312.6
2016-May-01 03:33N 55°23' E 014°31'1212.2
2016-May-01 02:33N 55°30' E 014°48'1312.6
2016-May-01 01:33N 55°36' E 015°08'1212.3
2016-May-01 00:33N 55°40' E 015°28'1312.5
2016-Apr-30 23:33N 55°43' E 015°50'1312.5
2016-Apr-30 22:33N 55°46' E 016°12'1312.5
2016-Apr-30 21:33N 55°49' E 016°33'1312.4
2016-Apr-30 20:29N 55°52' E 016°56'1512.4
2016-Apr-30 19:15N 55°56' E 017°22'912.4
2016-Apr-30 18:30N 55°59' E 017°38'1212.4
2016-Apr-30 17:33N 56°05' E 017°57'1512.5
2016-Apr-30 16:19N 56°13' E 018°20'22112.4
2016-Apr-29 22:30N 59°20' E 022°02'1212.2
2016-Apr-29 21:34N 59°27' E 022°19'1612.3
2016-Apr-29 20:15N 59°33' E 022°49'912.5
2016-Apr-29 19:33N 59°35' E 023°06'1312.6
2016-Apr-29 18:33N 59°38' E 023°30'1312.5
2016-Apr-29 17:33N 59°42' E 023°53'1312.5
2016-Apr-29 16:33N 59°46' E 024°17'3812.6
2016-Apr-29 13:33N 59°54' E 025°31'1212.4
2016-Apr-29 12:34N 59°56' E 025°55'1312.4
2016-Apr-29 11:29N 59°60' E 026°21'1112.1
2016-Apr-29 10:34N 60°01' E 026°43'1211.9
2016-Apr-29 09:31N 60°01' E 027°08'1212.4
2016-Apr-29 08:33N 60°07' E 027°28'1311.6
2016-Apr-29 07:23N 60°11' E 027°54'1012.3
2016-Apr-29 06:33N 60°09' E 028°14'1010.3
2016-Apr-29 05:33N 60°08' E 028°34'9 8.9
2016-Apr-29 04:33N 60°15' E 028°48'6 5.8
2016-Apr-29 03:28N 60°20' E 028°42'0 0.0
2016-Apr-29 02:29N 60°20' E 028°42'0 0.0
2016-Apr-29 01:32N 60°20' E 028°42'0 0.0
2016-Apr-28 22:20N 60°20' E 028°42'0 0.0
2016-Apr-28 20:20N 60°20' E 028°42'0 0.0
2016-Apr-28 19:23N 60°20' E 028°42'0 0.0
2016-Apr-28 18:26N 60°20' E 028°42'0 0.0
2016-Apr-28 17:26N 60°20' E 028°42'0 0.0
2016-Apr-28 16:26N 60°20' E 028°42'0 0.0
2016-Apr-28 15:14N 60°20' E 028°42'0 0.0
2016-Apr-28 12:29N 60°20' E 028°42'0 0.0
2016-Apr-28 09:29N 60°20' E 028°42'0 0.0
2016-Apr-28 00:12N 60°20' E 028°42'3 2.7
2016-Apr-27 23:12N 60°18' E 028°44'5 8.4
2016-Apr-27 22:33N 60°12' E 028°45'1313.0
2016-Apr-27 21:33N 60°02' E 028°31'2 1.6
2016-Apr-27 20:32N 60°00' E 028°29'0 0.0
2016-Apr-27 19:23N 60°00' E 028°29'0 0.0
2016-Apr-27 18:23N 60°00' E 028°29'0 0.0
2016-Apr-27 17:26N 60°00' E 028°29'0 0.0
2016-Apr-27 16:26N 60°00' E 028°29'0 0.0
2016-Apr-27 15:26N 60°00' E 028°29'0 0.1
2016-Apr-27 14:29N 60°01' E 028°29'0 0.1
2016-Apr-27 13:32N 60°00' E 028°30'1 1.5
2016-Apr-27 12:33N 60°01' E 028°32'9 9.4
2016-Apr-27 11:34N 60°07' E 028°16'1010.2
2016-Apr-27 10:33N 60°09' E 027°57'9 9.3
2016-Apr-27 09:34N 60°08' E 027°38'1010.2
2016-Apr-27 08:34N 60°03' E 027°21'1010.0
2016-Apr-27 07:32N 59°58' E 027°03'10 9.7
2016-Apr-27 06:33N 59°59' E 026°44'8 8.0
2016-Apr-27 05:34N 59°58' E 026°28'73 8.0
2016-Apr-26 20:23N 59°41' E 024°07'5 6.0
2016-Apr-26 19:33N 59°39' E 023°58'5 5.5
2016-Apr-26 18:33N 59°38' E 023°47'8 8.3
2016-Apr-26 17:33N 59°35' E 023°32'8 8.3
2016-Apr-26 16:33N 59°32' E 023°16'  
Track history (hours):
 
Tides and Currents Weather Stations Pressure Air Temp Water Temp Dewpoint Dewpoint Depression Visibility Wind Speed Wind Dir Waves Ship Positions

Delta Pioneer

Last reported at 2016-May-06 08:16 UTC. Time now 2016-May-06 09:20 UTC.
Position N 51°54' E 003°26'.

Length 249 m; draft 14 m.

Type: Ship (hazmat cat C). MMSI: 240244000.

Date/timePositionNaut miles runAvg speedWind from/ knotsBaromVisibWave heightAir tempDewpointWater temp
2016-May-06 08:16N 51°54' E 003°26'0 0.0
2016-May-06 07:31N 51°54' E 003°26'0 0.0
2016-May-06 06:28N 51°54' E 003°26'0 0.1
2016-May-06 03:19N 51°54' E 003°26'0 0.0
2016-May-06 00:04N 51°54' E 003°26'0 0.0
2016-May-05 17:22N 51°54' E 003°26'0 0.0
2016-May-05 07:31N 51°54' E 003°26'0 0.0
2016-May-05 06:31N 51°54' E 003°26'0 0.0
2016-May-05 05:31N 51°54' E 003°26'0 0.1
2016-May-05 04:25N 51°54' E 003°26'0 0.0
2016-May-04 21:28N 51°54' E 003°26'0 0.0
2016-May-04 07:28N 51°54' E 003°26'4 4.9
2016-May-04 06:33N 51°54' E 003°18'1010.4
2016-May-04 05:33N 51°54' E 003°01'30 9.1
2016-May-04 02:14N 52°22' E 002°47'2211.0
2016-May-04 00:14N 52°42' E 003°03'710.9
2016-May-03 23:33N 52°49' E 003°08'38211.2
2016-May-02 13:32N 57°51' E 009°59'1212.1
2016-May-02 12:33N 57°51' E 010°21'1111.5
2016-May-02 11:33N 57°50' E 010°42'1211.9
2016-May-02 10:33N 57°42' E 010°59'1212.5
2016-May-02 09:34N 57°33' E 011°16'1211.9
2016-May-02 08:34N 57°23' E 011°29'1313.2
2016-May-02 07:33N 57°11' E 011°37'1312.8
2016-May-02 06:33N 56°59' E 011°45'1212.2
2016-May-02 05:33N 56°47' E 011°53'1111.1
2016-May-02 04:33N 56°37' E 011°45'1211.6
2016-May-02 03:33N 56°27' E 011°34'1211.6
2016-May-02 02:33N 56°23' E 011°15'8 7.7
2016-May-02 01:33N 56°17' E 011°06'1312.5
2016-May-02 00:33N 56°04' E 011°06'1211.9
2016-May-01 23:33N 55°54' E 010°54'1211.6
2016-May-01 22:32N 55°43' E 010°48'2412.0
2016-May-01 20:33N 55°21' E 011°02'10 9.8
2016-May-01 19:33N 55°11' E 011°04'1111.4
2016-May-01 18:33N 54°60' E 010°59'1212.0
2016-May-01 17:33N 54°49' E 010°50'1010.4
2016-May-01 16:33N 54°39' E 010°52'1212.0
2016-May-01 15:33N 54°36' E 011°12'1312.7
2016-May-01 14:33N 54°30' E 011°32'1212.4
2016-May-01 13:33N 54°27' E 011°52'1111.5
2016-May-01 12:34N 54°28' E 012°12'1212.0
2016-May-01 11:33N 54°38' E 012°21'11 9.2
2016-May-01 10:19N 54°44' E 012°38'2810.1
2016-May-01 07:33N 54°56' E 013°23'1212.2
2016-May-01 06:33N 54°60' E 013°43'1312.7
2016-May-01 05:33N 55°04' E 014°03'1212.0
2016-May-01 04:33N 55°13' E 014°17'1312.6
2016-May-01 03:33N 55°23' E 014°31'1212.2
2016-May-01 02:33N 55°30' E 014°48'1312.6
2016-May-01 01:33N 55°36' E 015°08'1212.3
2016-May-01 00:33N 55°40' E 015°28'1312.5
2016-Apr-30 23:33N 55°43' E 015°50'1312.5
2016-Apr-30 22:33N 55°46' E 016°12'1312.5
2016-Apr-30 21:33N 55°49' E 016°33'1312.4
2016-Apr-30 20:29N 55°52' E 016°56'1512.4
2016-Apr-30 19:15N 55°56' E 017°22'912.4
2016-Apr-30 18:30N 55°59' E 017°38'1212.4
2016-Apr-30 17:33N 56°05' E 017°57'1512.5
2016-Apr-30 16:19N 56°13' E 018°20'22112.4
2016-Apr-29 22:30N 59°20' E 022°02'1212.2
2016-Apr-29 21:34N 59°27' E 022°19'1612.3
2016-Apr-29 20:15N 59°33' E 022°49'912.5
2016-Apr-29 19:33N 59°35' E 023°06'1312.6
2016-Apr-29 18:33N 59°38' E 023°30'1312.5
2016-Apr-29 17:33N 59°42' E 023°53'1312.5
2016-Apr-29 16:33N 59°46' E 024°17'3812.6
2016-Apr-29 13:33N 59°54' E 025°31'1212.4
2016-Apr-29 12:34N 59°56' E 025°55'1312.4
2016-Apr-29 11:29N 59°60' E 026°21'1112.1
2016-Apr-29 10:34N 60°01' E 026°43'1211.9
2016-Apr-29 09:31N 60°01' E 027°08'1212.4
2016-Apr-29 08:33N 60°07' E 027°28'1311.6
2016-Apr-29 07:23N 60°11' E 027°54'1012.3
2016-Apr-29 06:33N 60°09' E 028°14'1010.3
2016-Apr-29 05:33N 60°08' E 028°34'9 8.9
2016-Apr-29 04:33N 60°15' E 028°48'6 5.8
2016-Apr-29 03:28N 60°20' E 028°42'0 0.0
2016-Apr-29 02:29N 60°20' E 028°42'0 0.0
2016-Apr-29 01:32N 60°20' E 028°42'0 0.0
2016-Apr-28 22:20N 60°20' E 028°42'0 0.0
2016-Apr-28 20:20N 60°20' E 028°42'0 0.0
2016-Apr-28 19:23N 60°20' E 028°42'0 0.0
2016-Apr-28 18:26N 60°20' E 028°42'0 0.0
2016-Apr-28 17:26N 60°20' E 028°42'0 0.0
2016-Apr-28 16:26N 60°20' E 028°42'0 0.0
2016-Apr-28 15:14N 60°20' E 028°42'0 0.0
2016-Apr-28 12:29N 60°20' E 028°42'0 0.0
2016-Apr-28 09:29N 60°20' E 028°42'0 0.0
2016-Apr-28 00:12N 60°20' E 028°42'3 2.7
2016-Apr-27 23:12N 60°18' E 028°44'5 8.4
2016-Apr-27 22:33N 60°12' E 028°45'1313.0
2016-Apr-27 21:33N 60°02' E 028°31'2 1.6
2016-Apr-27 20:32N 60°00' E 028°29'0 0.0
2016-Apr-27 19:23N 60°00' E 028°29'0 0.0
2016-Apr-27 18:23N 60°00' E 028°29'0 0.0
2016-Apr-27 17:26N 60°00' E 028°29'0 0.0
2016-Apr-27 16:26N 60°00' E 028°29'0 0.0
2016-Apr-27 15:26N 60°00' E 028°29'0 0.1
2016-Apr-27 14:29N 60°01' E 028°29'0 0.1
2016-Apr-27 13:32N 60°00' E 028°30'1 1.5
2016-Apr-27 12:33N 60°01' E 028°32'9 9.4
2016-Apr-27 11:34N 60°07' E 028°16'1010.2
2016-Apr-27 10:33N 60°09' E 027°57'9 9.3
2016-Apr-27 09:34N 60°08' E 027°38'1010.2
2016-Apr-27 08:34N 60°03' E 027°21'1010.0
2016-Apr-27 07:32N 59°58' E 027°03'10 9.7
2016-Apr-27 06:33N 59°59' E 026°44'8 8.0
2016-Apr-27 05:34N 59°58' E 026°28'73 8.0
2016-Apr-26 20:23N 59°41' E 024°07'5 6.0
2016-Apr-26 19:33N 59°39' E 023°58'5 5.5
2016-Apr-26 18:33N 59°38' E 023°47'8 8.3
2016-Apr-26 17:33N 59°35' E 023°32'8 8.3
2016-Apr-26 16:33N 59°32' E 023°16'  

Dump ship's entire track history